createdAt,value
2017-07-22T00:01:56.357Z,13.17
2017-07-22T00:04:23.918Z,13.33
2017-07-22T00:06:51.582Z,13.50
2017-07-22T00:09:19.244Z,12.40
2017-07-22T00:11:46.907Z,12.80
2017-07-22T00:14:14.565Z,14.40
2017-07-22T00:16:42.231Z,12.50
2017-07-22T00:19:09.786Z,12.30
2017-07-22T00:21:37.442Z,13.50
2017-07-22T00:24:05.106Z,13.17
2017-07-22T00:26:32.765Z,12.70
2017-07-22T00:29:00.426Z,13.60
2017-07-22T00:31:28.095Z,12.97
2017-07-22T00:33:55.751Z,13.40
2017-07-22T00:36:23.325Z,12.70
2017-07-22T00:38:50.969Z,14.90
2017-07-22T00:41:18.522Z,13.10
2017-07-22T00:43:46.089Z,13.67
2017-07-22T00:46:13.750Z,12.87
2017-07-22T00:48:41.326Z,12.70
2017-07-22T00:51:08.886Z,12.80
2017-07-22T00:53:36.443Z,13.83
2017-07-22T00:56:04.095Z,14.43
2017-07-22T00:58:31.727Z,13.20
2017-07-22T01:00:59.390Z,13.37
2017-07-22T01:03:26.970Z,14.30
2017-07-22T01:05:54.522Z,13.60
2017-07-22T01:08:22.079Z,13.37
2017-07-22T01:10:49.630Z,14.47
2017-07-22T01:13:17.305Z,14.43
2017-07-22T01:15:44.862Z,14.20
2017-07-22T01:18:12.426Z,15.13
2017-07-22T01:20:39.977Z,15.37
2017-07-22T01:23:07.551Z,16.27
2017-07-22T01:25:35.134Z,15.03
2017-07-22T01:28:03.482Z,17.93
2017-07-22T01:30:31.146Z,15.60
2017-07-22T01:32:58.705Z,15.13
2017-07-22T01:35:26.264Z,17.63
2017-07-22T01:37:53.845Z,16.53
2017-07-22T01:40:22.198Z,16.40
2017-07-22T01:42:49.750Z,19.43
2017-07-22T01:45:17.417Z,18.07
2017-07-22T01:47:44.965Z,16.10
2017-07-22T01:50:12.638Z,15.97
2017-07-22T01:52:40.302Z,17.10
2017-07-22T01:55:07.959Z,18.73
2017-07-22T01:57:35.630Z,18.37
2017-07-22T02:00:03.293Z,17.17
2017-07-22T02:02:30.941Z,18.23
2017-07-22T02:04:58.610Z,17.80
2017-07-22T02:07:26.265Z,16.27
2017-07-22T02:09:53.929Z,19.20
2017-07-22T02:12:21.487Z,17.07
2017-07-22T02:14:49.090Z,17.93
2017-07-22T02:17:16.645Z,19.70
2017-07-22T02:19:44.985Z,19.73
2017-07-22T02:22:12.645Z,19.20
2017-07-22T02:24:40.313Z,18.27
2017-07-22T02:27:08.069Z,18.07
2017-07-22T02:29:35.625Z,20.83
2017-07-22T02:32:03.294Z,19.20
2017-07-22T02:34:30.894Z,18.97
2017-07-22T02:36:58.451Z,19.53
2017-07-22T02:39:26.074Z,21.43
2017-07-22T02:41:53.732Z,19.60
2017-07-22T02:44:21.395Z,19.80
2017-07-22T02:46:48.954Z,21.07
2017-07-22T02:49:16.683Z,21.07
2017-07-22T02:51:44.267Z,20.00
2017-07-22T02:54:11.833Z,21.50
2017-07-22T02:56:39.385Z,19.67
2017-07-22T02:59:06.954Z,19.67
2017-07-22T03:01:34.618Z,20.27
2017-07-22T03:04:02.210Z,19.70
2017-07-22T03:06:30.555Z,19.60
2017-07-22T03:08:58.122Z,19.90
2017-07-22T03:11:25.683Z,20.37
2017-07-22T03:13:53.332Z,21.77
2017-07-22T03:16:20.993Z,22.13
2017-07-22T03:18:48.657Z,22.20
2017-07-22T03:21:16.215Z,20.60
2017-07-22T03:23:43.769Z,22.33
2017-07-22T03:26:11.430Z,21.30
2017-07-22T03:28:39.014Z,22.33
2017-07-22T03:31:07.370Z,22.50
2017-07-22T03:33:35.030Z,22.20
2017-07-22T03:36:02.691Z,20.30
2017-07-22T03:38:30.246Z,19.70
2017-07-22T03:40:57.910Z,20.27
2017-07-22T03:43:25.569Z,21.63
2017-07-22T03:45:53.122Z,21.70
2017-07-22T03:48:20.675Z,21.60
2017-07-22T03:50:48.226Z,22.00
2017-07-22T03:53:15.806Z,22.80
2017-07-22T03:55:43.362Z,20.37
2017-07-22T03:58:10.915Z,22.23
2017-07-22T04:00:38.485Z,24.30
2017-07-22T04:03:06.034Z,24.10
2017-07-22T04:05:33.710Z,21.57
2017-07-22T04:08:01.370Z,21.37
2017-07-22T04:10:29.031Z,22.23
2017-07-22T04:12:56.597Z,24.37
2017-07-22T04:15:24.150Z,24.37
2017-07-22T04:17:51.806Z,22.27
2017-07-22T04:20:19.362Z,24.47
2017-07-22T04:22:46.914Z,23.70
2017-07-22T04:25:14.486Z,23.23
2017-07-22T04:27:42.049Z,22.77
2017-07-22T04:30:09.634Z,22.70
2017-07-22T04:32:37.955Z,24.10
2017-07-22T04:35:05.546Z,23.50
2017-07-22T04:37:33.205Z,24.97
2017-07-22T04:40:00.775Z,23.13
2017-07-22T04:42:28.423Z,24.83
2017-07-22T04:44:56.085Z,25.13
2017-07-22T04:47:23.750Z,24.97
2017-07-22T04:49:51.407Z,25.90
2017-07-22T04:52:19.074Z,25.57
2017-07-22T04:54:46.730Z,28.77
2017-07-22T04:57:14.390Z,29.07
2017-07-22T04:59:41.944Z,27.27
2017-07-22T05:02:09.614Z,27.00
2017-07-22T05:04:37.170Z,28.90
2017-07-22T05:07:04.750Z,27.73
2017-07-22T05:09:33.107Z,29.97
2017-07-22T05:12:00.770Z,31.07
2017-07-22T05:14:28.426Z,30.30
2017-07-22T05:16:56.090Z,29.10
2017-07-22T05:19:23.751Z,29.73
2017-07-22T05:21:51.552Z,27.10
2017-07-22T05:24:19.899Z,27.60
2017-07-22T05:26:47.631Z,28.00
2017-07-22T05:29:15.329Z,27.20
2017-07-22T05:31:42.914Z,27.17
2017-07-22T05:34:10.647Z,26.03
2017-07-22T05:36:38.379Z,23.73
2017-07-22T05:39:06.026Z,23.03
2017-07-22T05:41:33.823Z,25.87
2017-07-22T05:44:01.403Z,23.20
2017-07-22T05:46:29.050Z,25.37
2017-07-22T05:48:56.711Z,25.17
2017-07-22T05:51:24.458Z,24.90
2017-07-22T05:53:52.039Z,22.37
2017-07-22T05:56:19.694Z,21.03
2017-07-22T05:58:47.250Z,22.90
2017-07-22T06:01:14.805Z,22.87
2017-07-22T06:03:42.373Z,21.43
2017-07-22T06:06:09.924Z,20.70
2017-07-22T06:08:37.572Z,20.23
2017-07-22T06:11:05.126Z,21.07
2017-07-22T06:13:32.690Z,19.73
2017-07-22T06:16:00.279Z,20.97
2017-07-22T06:18:27.829Z,21.97
2017-07-22T06:20:55.410Z,23.23
2017-07-22T06:23:22.963Z,21.17
2017-07-22T06:25:50.517Z,19.97
2017-07-22T06:28:18.070Z,19.27
2017-07-22T06:30:45.729Z,20.13
2017-07-22T06:33:13.339Z,19.80
2017-07-22T06:35:40.957Z,20.53
2017-07-22T06:38:08.617Z,21.40
2017-07-22T06:40:36.271Z,18.90
2017-07-22T06:43:03.826Z,19.67
2017-07-22T06:45:31.491Z,18.77
2017-07-22T06:47:59.645Z,18.47
2017-07-22T06:50:27.234Z,18.40
2017-07-22T06:52:54.893Z,16.47
2017-07-22T06:55:22.567Z,18.70
2017-07-22T06:57:51.309Z,15.17
2017-07-22T07:00:19.181Z,18.70
2017-07-22T07:02:46.742Z,15.97
2017-07-22T07:05:14.330Z,15.50
2017-07-22T07:07:41.980Z,15.87
2017-07-22T07:10:09.920Z,14.37
2017-07-22T07:12:37.602Z,16.20
2017-07-22T07:15:05.244Z,15.97
2017-07-22T07:17:33.041Z,13.83
2017-07-22T07:20:00.695Z,18.80
2017-07-22T07:22:28.298Z,13.50
2017-07-22T07:24:55.917Z,13.30
2017-07-22T07:27:23.471Z,13.37
2017-07-22T07:29:52.164Z,13.37
2017-07-22T07:32:19.925Z,12.83
2017-07-22T07:34:47.586Z,12.77
2017-07-22T07:37:15.254Z,12.70
2017-07-22T07:39:42.848Z,12.30
2017-07-22T07:42:10.570Z,10.87
2017-07-22T07:44:38.254Z,13.10
2017-07-22T07:47:06.788Z,12.10
2017-07-22T07:49:34.390Z,12.10
2017-07-22T07:52:02.442Z,12.47
2017-07-22T07:54:30.031Z,10.97
2017-07-22T07:56:57.668Z,12.17
2017-07-22T07:59:25.247Z,11.70
2017-07-22T08:01:53.598Z,9.47
2017-07-22T08:04:21.261Z,11.30
2017-07-22T08:06:49.686Z,10.70
2017-07-22T08:09:17.302Z,10.30
2017-07-22T08:11:44.962Z,10.07
2017-07-22T08:14:12.622Z,10.53
2017-07-22T08:16:40.185Z,10.30
2017-07-22T08:19:07.846Z,11.50
2017-07-22T08:21:35.506Z,10.30
2017-07-22T08:24:03.159Z,11.23
2017-07-22T08:26:30.705Z,10.77
2017-07-22T08:28:58.266Z,16.57
2017-07-22T08:31:25.821Z,11.70
2017-07-22T08:33:53.413Z,11.33
2017-07-22T08:36:20.963Z,10.33
2017-07-22T08:38:48.514Z,9.70
2017-07-22T08:41:16.082Z,9.00
2017-07-22T08:43:43.638Z,9.77
2017-07-22T08:46:11.186Z,10.33
2017-07-22T08:48:38.742Z,10.07
2017-07-22T08:51:06.295Z,9.80
2017-07-22T08:53:33.883Z,12.17
2017-07-22T08:56:01.537Z,12.40
2017-07-22T08:58:29.114Z,10.10
2017-07-22T09:03:30.669Z,10.43
2017-07-22T09:05:58.326Z,10.47
2017-07-22T09:08:25.897Z,9.70
2017-07-22T09:10:53.557Z,9.63
2017-07-22T09:13:21.105Z,9.03
2017-07-22T09:15:48.769Z,9.30
2017-07-22T09:18:16.426Z,8.37
2017-07-22T09:20:43.990Z,9.60
2017-07-22T09:23:11.654Z,10.33
2017-07-22T09:25:39.319Z,10.40
2017-07-22T09:28:06.883Z,11.40
2017-07-22T09:30:35.246Z,10.60
2017-07-22T09:33:02.797Z,10.07
2017-07-22T09:35:30.358Z,13.90
2017-07-22T09:37:57.914Z,11.60
2017-07-22T09:40:25.512Z,14.50
2017-07-22T09:42:53.861Z,10.40
2017-07-22T09:45:21.426Z,8.67
2017-07-22T09:47:49.090Z,9.40
2017-07-22T09:50:16.646Z,10.60
2017-07-22T09:52:44.322Z,11.20
2017-07-22T09:55:12.246Z,12.20
2017-07-22T09:57:39.833Z,11.37
2017-07-22T10:00:07.382Z,6.57
2017-07-22T10:02:35.053Z,6.93
2017-07-22T10:05:02.814Z,6.93
2017-07-22T10:07:30.558Z,8.57
2017-07-22T10:09:58.522Z,7.17
2017-07-22T10:12:26.447Z,7.60
2017-07-22T10:14:54.914Z,8.50
2017-07-22T10:17:22.838Z,7.37
2017-07-22T10:19:50.381Z,9.23
2017-07-22T10:22:17.930Z,10.67
2017-07-22T10:24:45.722Z,7.43
2017-07-22T10:27:14.328Z,7.57
2017-07-22T10:29:41.889Z,7.30
2017-07-22T10:32:09.545Z,6.77
2017-07-22T10:34:37.209Z,9.03
2017-07-22T10:37:04.990Z,7.73
2017-07-22T10:39:32.738Z,7.47
2017-07-22T10:42:00.330Z,7.70
2017-07-22T10:44:28.682Z,10.10
2017-07-22T10:46:56.333Z,9.00
2017-07-22T10:49:23.881Z,8.43
2017-07-22T10:51:51.478Z,10.00
2017-07-22T10:54:19.834Z,7.77
2017-07-22T10:56:47.382Z,7.80
2017-07-22T10:59:14.957Z,7.50
2017-07-22T11:01:42.621Z,8.60
2017-07-22T11:04:10.252Z,7.87
2017-07-22T11:06:37.804Z,8.30
2017-07-22T11:09:05.394Z,8.50
2017-07-22T11:11:32.958Z,8.50
2017-07-22T11:14:00.692Z,7.73
2017-07-22T11:16:28.377Z,8.83
2017-07-22T11:18:55.927Z,8.33
2017-07-22T11:21:23.502Z,7.87
2017-07-22T11:23:51.158Z,7.43
2017-07-22T11:26:18.822Z,23.00
2017-07-22T11:28:46.377Z,29.17
2017-07-22T11:31:14.026Z,7.77
2017-07-22T11:33:41.571Z,8.83
2017-07-22T11:36:09.157Z,7.77
2017-07-22T11:38:36.718Z,8.33
2017-07-22T11:41:04.386Z,6.83
2017-07-22T11:43:31.930Z,8.67
2017-07-22T11:45:59.506Z,7.63
2017-07-22T11:48:27.161Z,9.67
2017-07-22T11:50:54.710Z,7.40
2017-07-22T11:53:22.277Z,9.03
2017-07-22T11:55:49.934Z,7.73
2017-07-22T11:58:17.486Z,8.40
2017-07-22T12:00:45.058Z,6.90
2017-07-22T12:03:12.612Z,7.10
2017-07-22T12:05:40.160Z,8.63
2017-07-22T12:08:07.734Z,8.90
2017-07-22T12:10:35.286Z,7.97
2017-07-22T12:13:02.958Z,7.47
2017-07-22T12:15:30.619Z,7.03
2017-07-22T12:17:58.282Z,7.70
2017-07-22T12:20:25.850Z,6.30
2017-07-22T12:22:53.508Z,6.17
2017-07-22T12:25:21.078Z,6.10
2017-07-22T12:27:48.722Z,6.73
2017-07-22T12:30:16.383Z,7.20
2017-07-22T12:32:44.045Z,6.57
2017-07-22T12:35:11.614Z,12.03
2017-07-22T12:37:39.272Z,6.90
2017-07-22T12:40:06.818Z,7.40
2017-07-22T12:42:34.373Z,7.30
2017-07-22T12:45:01.951Z,8.00
2017-07-22T12:47:29.498Z,7.20
2017-07-22T12:49:57.077Z,6.90
2017-07-22T12:52:24.722Z,7.57
2017-07-22T12:54:52.378Z,7.27
2017-07-22T12:57:19.946Z,7.33
2017-07-22T12:59:47.510Z,7.13
2017-07-22T13:02:15.078Z,7.60
2017-07-22T13:04:42.718Z,6.33
2017-07-22T13:07:10.381Z,6.97
2017-07-22T13:09:37.935Z,7.63
2017-07-22T13:12:05.506Z,10.03
2017-07-22T13:14:33.158Z,8.03
2017-07-22T13:17:00.718Z,6.10
2017-07-22T13:19:28.278Z,6.47
2017-07-22T13:21:55.826Z,8.97
2017-07-22T13:24:23.410Z,7.33
2017-07-22T13:26:51.059Z,11.60
2017-07-22T13:29:18.719Z,6.57
2017-07-22T13:31:46.378Z,7.20
2017-07-22T13:34:13.930Z,6.57
2017-07-22T13:36:41.509Z,4.93
2017-07-22T13:39:09.082Z,4.80
2017-07-22T13:41:37.398Z,5.07
2017-07-22T13:44:04.971Z,5.00
2017-07-22T13:46:32.522Z,5.10
2017-07-22T13:49:00.123Z,5.53
2017-07-22T13:51:27.702Z,5.30
2017-07-22T13:53:56.058Z,5.57
2017-07-22T13:56:23.610Z,5.23
2017-07-22T13:58:51.163Z,5.00
2017-07-22T14:01:18.730Z,5.23
2017-07-22T14:03:46.385Z,4.83
2017-07-22T14:06:13.930Z,5.37
2017-07-22T14:08:41.482Z,5.67
2017-07-22T14:11:09.066Z,4.73
2017-07-22T14:13:36.630Z,6.57
2017-07-22T14:16:04.206Z,4.97
2017-07-22T14:18:31.766Z,5.30
2017-07-22T14:20:59.314Z,5.70
2017-07-22T14:23:26.853Z,5.83
2017-07-22T14:25:54.422Z,6.70
2017-07-22T14:28:21.994Z,5.30
2017-07-22T14:30:49.646Z,5.43
2017-07-22T14:33:17.190Z,5.30
2017-07-22T14:35:44.763Z,5.63
2017-07-22T14:38:12.321Z,5.93
2017-07-22T14:40:39.982Z,6.60
2017-07-22T14:43:07.646Z,5.23
2017-07-22T14:45:35.196Z,6.40
2017-07-22T14:48:02.750Z,6.13
2017-07-22T14:50:30.323Z,6.77
2017-07-22T14:52:57.991Z,7.67
2017-07-22T14:55:25.643Z,7.83
2017-07-22T14:57:53.189Z,6.90
2017-07-22T15:00:20.768Z,6.10
2017-07-22T15:02:48.319Z,7.60
2017-07-22T15:05:15.986Z,6.63
2017-07-22T15:07:43.544Z,6.77
2017-07-22T15:10:11.203Z,6.13
2017-07-22T15:12:38.868Z,10.37
2017-07-22T15:15:06.530Z,8.13
2017-07-22T15:17:34.110Z,7.57
2017-07-22T15:20:02.424Z,7.90
2017-07-22T15:22:29.966Z,7.07
2017-07-22T15:24:57.582Z,7.00
2017-07-22T15:27:25.134Z,7.77
2017-07-22T15:29:52.808Z,7.73
2017-07-22T15:32:20.366Z,8.57
2017-07-22T15:34:48.024Z,8.10
2017-07-22T15:37:15.688Z,8.10
2017-07-22T15:39:43.317Z,8.13
2017-07-22T15:42:10.894Z,8.53
2017-07-22T15:44:38.439Z,7.90
2017-07-22T15:47:06.475Z,9.53
2017-07-22T15:49:34.094Z,8.23
2017-07-22T15:52:01.655Z,8.80
2017-07-22T15:54:29.310Z,8.37
2017-07-22T15:56:56.877Z,8.87
2017-07-22T15:59:24.540Z,9.30
2017-07-22T16:01:52.204Z,8.77
2017-07-22T16:04:20.202Z,8.83
2017-07-22T16:06:48.735Z,8.27
2017-07-22T16:09:16.317Z,7.90
2017-07-22T16:11:43.970Z,9.20
2017-07-22T16:14:11.523Z,8.27
2017-07-22T16:16:39.080Z,7.83
2017-07-22T16:19:06.749Z,9.70
2017-07-22T16:21:34.304Z,7.33
2017-07-22T16:24:01.972Z,7.97
2017-07-22T16:26:29.626Z,6.53
2017-07-22T16:28:57.196Z,6.17
2017-07-22T16:31:24.774Z,5.43
2017-07-22T16:33:53.125Z,5.60
2017-07-22T16:36:20.675Z,5.70
2017-07-22T16:38:48.227Z,5.63
2017-07-22T16:41:15.810Z,10.80
2017-07-22T16:43:43.394Z,5.53
2017-07-22T16:46:11.747Z,5.10
2017-07-22T16:48:39.398Z,5.50
2017-07-22T16:51:06.955Z,5.17
2017-07-22T16:53:34.505Z,6.17
2017-07-22T16:56:02.288Z,7.50
2017-07-22T16:58:29.837Z,6.23
2017-07-22T17:00:57.402Z,8.10
2017-07-22T17:03:24.953Z,5.10
2017-07-22T17:05:52.531Z,6.30
2017-07-22T17:08:20.178Z,4.90
2017-07-22T17:10:47.850Z,4.90
2017-07-22T17:13:15.516Z,6.33
2017-07-22T17:15:43.070Z,6.80
2017-07-22T17:18:10.613Z,5.83
2017-07-22T17:20:38.295Z,5.17
2017-07-22T17:23:05.858Z,6.50
2017-07-22T17:25:33.506Z,6.03
2017-07-22T17:28:01.467Z,6.63
2017-07-22T17:30:29.130Z,5.77
2017-07-22T17:32:56.710Z,5.77
2017-07-22T17:35:24.262Z,6.20
2017-07-22T17:37:51.914Z,7.60
2017-07-22T17:40:19.474Z,6.63
2017-07-22T17:42:47.053Z,8.87
2017-07-22T17:45:14.626Z,7.63
2017-07-22T17:47:42.938Z,7.20
2017-07-22T17:50:10.530Z,6.87
2017-07-22T17:52:38.090Z,6.30
2017-07-22T17:55:05.757Z,6.83
2017-07-22T17:57:33.411Z,6.57
2017-07-22T18:00:00.959Z,6.13
2017-07-22T18:02:28.531Z,8.13
2017-07-22T18:04:56.098Z,5.53
2017-07-22T18:07:23.755Z,7.57
2017-07-22T18:09:51.335Z,5.87
2017-07-22T18:12:19.670Z,6.20
2017-07-22T18:14:47.231Z,9.10
2017-07-22T18:17:14.794Z,6.97
2017-07-22T18:19:47.636Z,9.00
2017-07-22T18:22:15.506Z,6.47
2017-07-22T18:24:43.293Z,8.07
2017-07-22T18:27:10.957Z,9.70
2017-07-22T18:29:38.541Z,7.90
2017-07-22T18:32:06.201Z,7.40
2017-07-22T18:34:37.766Z,10.03
2017-07-22T18:37:05.476Z,10.23
2017-07-22T18:39:33.078Z,8.30
2017-07-22T18:42:01.624Z,8.50
2017-07-22T18:44:29.297Z,9.03
2017-07-22T18:46:56.990Z,8.10
2017-07-22T18:49:24.650Z,13.80
2017-07-22T18:51:52.312Z,12.00
2017-07-22T18:54:19.970Z,10.30
2017-07-22T18:56:47.554Z,11.60
2017-07-22T18:59:15.909Z,13.27
2017-07-22T19:01:48.080Z,15.20
2017-07-22T19:04:15.842Z,10.00
2017-07-22T19:06:43.511Z,15.10
2017-07-22T19:09:11.161Z,15.67
2017-07-22T19:11:38.826Z,16.30
2017-07-22T19:14:06.486Z,12.10
2017-07-22T19:16:34.147Z,11.93
2017-07-22T19:19:01.809Z,11.40
2017-07-22T19:21:29.570Z,13.00
2017-07-22T19:23:57.207Z,12.00
2017-07-22T19:26:24.790Z,16.40
2017-07-22T19:28:52.463Z,18.57
2017-07-22T19:31:20.015Z,12.67
2017-07-22T19:33:50.642Z,9.80
2017-07-22T19:36:18.586Z,9.83
2017-07-22T19:38:46.178Z,8.73
2017-07-22T19:41:13.906Z,9.87
2017-07-22T19:43:41.482Z,11.90
2017-07-22T19:46:09.026Z,9.50
2017-07-22T19:48:36.662Z,11.10
2017-07-22T19:51:04.678Z,9.47
2017-07-22T19:53:32.345Z,8.30
2017-07-22T19:55:59.955Z,15.23
2017-07-22T19:58:27.757Z,10.83
2017-07-22T20:00:55.338Z,11.87
2017-07-22T20:03:25.933Z,12.40
2017-07-22T20:05:54.556Z,11.47
2017-07-22T20:08:22.118Z,11.27
2017-07-22T20:10:49.674Z,10.57
2017-07-22T20:13:17.239Z,12.00
2017-07-22T20:15:45.606Z,15.67
2017-07-22T20:18:13.314Z,11.43
2017-07-22T20:20:41.175Z,11.93
2017-07-22T20:23:08.863Z,12.57
2017-07-22T20:25:36.579Z,11.03
2017-07-22T20:28:04.218Z,11.67
2017-07-22T20:30:31.878Z,10.90
2017-07-22T20:32:59.443Z,13.40
2017-07-22T20:35:27.042Z,11.37
2017-07-22T20:37:54.658Z,11.57
2017-07-22T20:40:22.317Z,10.37
2017-07-22T20:42:49.980Z,11.33
2017-07-22T20:45:17.642Z,11.70
2017-07-22T20:47:45.303Z,11.47
2017-07-22T20:50:12.858Z,12.87
2017-07-22T20:52:40.524Z,12.13
2017-07-22T20:55:08.289Z,11.73
2017-07-22T20:57:35.838Z,12.30
2017-07-22T21:00:03.394Z,12.10
2017-07-22T21:02:30.955Z,13.00
2017-07-22T21:04:58.528Z,12.03
2017-07-22T21:07:26.118Z,11.27
2017-07-22T21:09:53.741Z,12.83
2017-07-22T21:12:21.294Z,12.93
2017-07-22T21:14:48.850Z,12.00
2017-07-22T21:17:16.428Z,11.80
2017-07-22T21:19:44.085Z,12.67
2017-07-22T21:22:11.645Z,11.50
2017-07-22T21:24:39.204Z,11.53
2017-07-22T21:27:06.761Z,12.50
2017-07-22T21:29:34.424Z,12.60
2017-07-22T21:32:02.010Z,12.80
2017-07-22T21:34:29.559Z,14.13
2017-07-22T21:36:57.922Z,13.90
2017-07-22T21:39:25.480Z,14.00
2017-07-22T21:41:53.034Z,14.30
2017-07-22T21:44:20.768Z,14.33
2017-07-22T21:46:48.362Z,15.43
2017-07-22T21:49:16.024Z,15.70
2017-07-22T21:51:43.689Z,16.90
2017-07-22T21:54:11.246Z,15.20
2017-07-22T21:56:38.902Z,15.37
2017-07-22T21:59:06.565Z,15.90
2017-07-22T22:01:34.222Z,15.00
2017-07-22T22:04:02.578Z,14.90
2017-07-22T22:06:30.139Z,12.93
2017-07-22T22:08:57.822Z,14.43
2017-07-22T22:11:25.485Z,12.70
2017-07-22T22:13:53.152Z,12.37
2017-07-22T22:16:20.811Z,14.27
2017-07-22T22:18:48.467Z,11.80
2017-07-22T22:21:16.054Z,12.47
2017-07-22T22:23:44.413Z,12.47
2017-07-22T22:26:11.973Z,13.20
2017-07-22T22:28:39.626Z,11.23
2017-07-22T22:31:07.177Z,12.17
2017-07-22T22:33:34.846Z,11.40
2017-07-22T22:36:02.394Z,10.90
2017-07-22T22:38:29.962Z,11.30
2017-07-22T22:40:57.622Z,11.03
2017-07-22T22:43:25.174Z,10.07
2017-07-22T22:45:52.842Z,9.70
2017-07-22T22:48:20.506Z,11.67
2017-07-22T22:50:48.161Z,10.07
2017-07-22T22:53:15.730Z,10.70
2017-07-22T22:55:43.298Z,10.60
2017-07-22T22:58:10.882Z,12.10
2017-07-22T23:00:39.226Z,9.80
2017-07-22T23:03:06.887Z,10.73
2017-07-22T23:05:34.546Z,10.50
2017-07-22T23:08:02.209Z,10.87
2017-07-22T23:10:29.866Z,10.60
2017-07-22T23:12:57.426Z,9.67
2017-07-22T23:15:24.980Z,10.33
2017-07-22T23:17:52.555Z,10.37
2017-07-22T23:20:20.202Z,9.23
2017-07-22T23:22:47.866Z,11.77
2017-07-22T23:25:15.431Z,9.73
2017-07-22T23:27:42.974Z,9.73
2017-07-22T23:30:10.527Z,10.87
2017-07-22T23:32:38.106Z,9.90
2017-07-22T23:35:05.687Z,10.10
2017-07-22T23:37:34.044Z,11.07
2017-07-22T23:40:01.704Z,10.53
2017-07-22T23:42:29.258Z,10.33
2017-07-22T23:44:56.806Z,10.97
2017-07-22T23:47:24.483Z,10.87
2017-07-22T23:49:52.030Z,10.53
2017-07-22T23:52:19.607Z,10.00
2017-07-22T23:54:47.263Z,11.73
2017-07-22T23:57:14.926Z,10.30
2017-07-22T23:59:42.502Z,11.03
